^^
Grace C. Lehan Memorial Weather Station Historical Data
Daily Summary for May 9, 2021 Units:  Both    English   Metric
Daily Weekly Monthly Yearly
  High: Low: Average:
Temperature: 37.9 °F /  3.3 °C 24.2 °F /  -4.3 °C 31.5 °F /  -0.3 °C
Dew Point: 23.3 °F /  -4.8 °C 16.2 °F /  -8.8 °C 19.1 °F /  -7.2 °C
Humidity: 72% 51.3% 60%
Wind Speed: 7mph /  11.3km/h - 2.2mph /  3.5km/h
Wind Gust: 18mph /  29km/h - -
Wind- - WNW
Pressure: 29.95 in /  1014.1 hPa 29.80 in /  1009 hPa -
Precipitation: 0.00 in /  0 mm    
 
 
Tabular Data for May 9, 2021
Time Temperature Dew Point Pressure Wind Wind Speed Wind Gust Humidity Rainfall Rate (Hourly) solar
00:04 27.6 °F /  -2.4 °C 17.8 °F /  -7.9 °C 29.84in /  1010.4hPa Calm   2mph /  3.2km/h 66% 0.00in /  0mm 0 W/m2
00:09 27.6 °F /  -2.4 °C 17.9 °F /  -7.8 °C 29.84in /  1010.4hPa Calm     66.5% 0.00in /  0mm 0 W/m2
00:14 27.5 °F /  -2.5 °C 18 °F /  -7.8 °C 29.84in /  1010.4hPa Calm     67% 0.00in /  0mm 0 W/m2
00:19 27.4 °F /  -2.6 °C 17.9 °F /  -7.8 °C 29.84in /  1010.4hPa Calm     67.1% 0.00in /  0mm 0 W/m2
00:24 27.2 °F /  -2.7 °C 18.1 °F /  -7.7 °C 29.84in /  1010.4hPa Calm     68% 0.00in /  0mm 0 W/m2
00:29 27.2 °F /  -2.7 °C 18 °F /  -7.8 °C 29.84in /  1010.4hPa Calm     68% 0.00in /  0mm 0 W/m2
00:34 27 °F /  -2.8 °C 17.9 °F /  -7.8 °C 29.84in /  1010.4hPa Calm     68% 0.00in /  0mm 0 W/m2
00:39 26.9 °F /  -2.8 °C 17.8 °F /  -7.9 °C 29.84in /  1010.4hPa Calm     68% 0.00in /  0mm 0 W/m2
00:44 26.9 °F /  -2.8 °C 18 °F /  -7.8 °C 29.84in /  1010.4hPa Calm     68.9% 0.00in /  0mm 0 W/m2
00:49 26.7 °F /  -2.9 °C 18 °F /  -7.8 °C 29.84in /  1010.4hPa Calm     69.1% 0.00in /  0mm 0 W/m2
00:54 26.7 °F /  -2.9 °C 18.2 °F /  -7.7 °C 29.84in /  1010.4hPa NW 0.1mph /  0.2km/h 3mph /  4.8km/h 70% 0.00in /  0mm 0 W/m2
00:59 26.6 °F /  -3 °C 18.1 °F /  -7.7 °C 29.84in /  1010.4hPa NW 0.4mph /  0.6km/h 3mph /  4.8km/h 70% 0.00in /  0mm 0 W/m2
01:04 26.5 °F /  -3.1 °C 18.1 °F /  -7.7 °C 29.84in /  1010.4hPa NW 0.1mph /  0.2km/h 3mph /  4.8km/h 70% 0.00in /  0mm 0 W/m2
01:09 26.5 °F /  -3.1 °C 18 °F /  -7.8 °C 29.83in /  1010hPa Calm   2mph /  3.2km/h 70% 0.00in /  0mm 0 W/m2
01:14 26.5 °F /  -3.1 °C 18 °F /  -7.8 °C 29.83in /  1010hPa NW 0.4mph /  0.6km/h 3mph /  4.8km/h 70% 0.00in /  0mm 0 W/m2
01:19 26.5 °F /  -3.1 °C 18 °F /  -7.8 °C 29.83in /  1010hPa NNW 2mph /  3.2km/h 7mph /  11.3km/h 70% 0.00in /  0mm 0 W/m2
01:24 26.5 °F /  -3.1 °C 18.1 °F /  -7.7 °C 29.83in /  1010hPa North 0.5mph /  0.8km/h 7mph /  11.3km/h 70% 0.00in /  0mm 0 W/m2
01:29 26.5 °F /  -3.1 °C 17.8 °F /  -7.9 °C 29.83in /  1010hPa NNW 1.5mph /  2.4km/h 7mph /  11.3km/h 69.3% 0.00in /  0mm 0 W/m2
01:34 26.5 °F /  -3.1 °C 18.1 °F /  -7.7 °C 29.83in /  1010hPa NNW 0.2mph /  0.3km/h 7mph /  11.3km/h 70% 0.00in /  0mm 0 W/m2
01:39 26.5 °F /  -3.1 °C 17.9 °F /  -7.8 °C 29.83in /  1010hPa NNW 1.2mph /  1.9km/h 4mph /  6.4km/h 69.7% 0.00in /  0mm 0 W/m2
01:44 26.5 °F /  -3.1 °C 17.7 °F /  -7.9 °C 29.83in /  1010hPa NNW 1.6mph /  2.6km/h 7mph /  11.3km/h 69% 0.00in /  0mm 0 W/m2
01:49 26.5 °F /  -3.1 °C 17.7 °F /  -7.9 °C 29.83in /  1010hPa NNW 1.3mph /  2.1km/h 7mph /  11.3km/h 69% 0.00in /  0mm 0 W/m2
01:54 26.5 °F /  -3.1 °C 17.7 °F /  -7.9 °C 29.83in /  1010hPa NNW 1.4mph /  2.3km/h 7mph /  11.3km/h 69% 0.00in /  0mm 0 W/m2
01:59 26.5 °F /  -3.1 °C 17.7 °F /  -7.9 °C 29.83in /  1010hPa NNW 2.3mph /  3.7km/h 7mph /  11.3km/h 69% 0.00in /  0mm 0 W/m2
02:04 26.6 °F /  -3 °C 17.8 °F /  -7.9 °C 29.83in /  1010hPa NNW 2.2mph /  3.5km/h 10mph /  16.1km/h 69% 0.00in /  0mm 0 W/m2
02:09 26.7 °F /  -2.9 °C 17.7 °F /  -7.9 °C 29.83in /  1010hPa NNW 2.7mph /  4.3km/h 10mph /  16.1km/h 68.3% 0.00in /  0mm 0 W/m2
02:14 26.9 °F /  -2.8 °C 17.7 °F /  -7.9 °C 29.83in /  1010hPa NNW 2.5mph /  4km/h 10mph /  16.1km/h 68% 0.00in /  0mm 0 W/m2
02:19 26.9 °F /  -2.8 °C 17.8 °F /  -7.9 °C 29.84in /  1010.4hPa North 2.4mph /  3.9km/h 11mph /  17.7km/h 68% 0.00in /  0mm 0 W/m2
02:24 27 °F /  -2.8 °C 17.9 °F /  -7.8 °C 29.84in /  1010.4hPa North 3.5mph /  5.6km/h 11mph /  17.7km/h 68% 0.00in /  0mm 0 W/m2
02:29 27.1 °F /  -2.7 °C 17.9 °F /  -7.8 °C 29.84in /  1010.4hPa NNW 2.9mph /  4.7km/h 11mph /  17.7km/h 67.9% 0.00in /  0mm 0 W/m2
02:34 27.1 °F /  -2.7 °C 17.6 °F /  -8 °C 29.84in /  1010.4hPa NNW 2.6mph /  4.2km/h 11mph /  17.7km/h 67% 0.00in /  0mm 0 W/m2
02:39 27.1 °F /  -2.7 °C 17.6 °F /  -8 °C 29.84in /  1010.4hPa NW 1.8mph /  2.9km/h 9mph /  14.5km/h 67% 0.00in /  0mm 0 W/m2
02:44 27.1 °F /  -2.7 °C 17.6 °F /  -8 °C 29.84in /  1010.4hPa NNW 1.7mph /  2.7km/h 9mph /  14.5km/h 67% 0.00in /  0mm 0 W/m2
02:49 27.1 °F /  -2.7 °C 17.6 °F /  -8 °C 29.83in /  1010hPa NNW 3.5mph /  5.6km/h 9mph /  14.5km/h 67% 0.00in /  0mm 0 W/m2
02:54 27 °F /  -2.8 °C 17.5 °F /  -8.1 °C 29.84in /  1010.4hPa NNW 2.5mph /  4km/h 9mph /  14.5km/h 67% 0.00in /  0mm 0 W/m2
02:59 27 °F /  -2.8 °C 17.6 °F /  -8 °C 29.83in /  1010hPa North 1.4mph /  2.3km/h 9mph /  14.5km/h 67.3% 0.00in /  0mm 0 W/m2
03:04 26.9 °F /  -2.8 °C 17.8 °F /  -7.9 °C 29.84in /  1010.4hPa NNW 2.3mph /  3.7km/h 9mph /  14.5km/h 68% 0.00in /  0mm 0 W/m2
03:09 26.8 °F /  -2.9 °C 17.7 °F /  -7.9 °C 29.84in /  1010.4hPa NNW 0.9mph /  1.4km/h 5mph /  8km/h 68% 0.00in /  0mm 0 W/m2
03:14 26.7 °F /  -2.9 °C 17.6 °F /  -8 °C 29.84in /  1010.4hPa NNW 1.6mph /  2.6km/h 6mph /  9.7km/h 68% 0.00in /  0mm 0 W/m2
03:19 26.7 °F /  -2.9 °C 17.6 °F /  -8 °C 29.84in /  1010.4hPa NNW 1.1mph /  1.8km/h 6mph /  9.7km/h 68% 0.00in /  0mm 0 W/m2
03:24 26.6 °F /  -3 °C 17.5 °F /  -8.1 °C 29.84in /  1010.4hPa NW 0.8mph /  1.3km/h 7mph /  11.3km/h 68% 0.00in /  0mm 0 W/m2
03:29 26.6 °F /  -3 °C 17.4 °F /  -8.1 °C 29.83in /  1010hPa NW 1.5mph /  2.4km/h 7mph /  11.3km/h 68% 0.00in /  0mm 0 W/m2
03:34 26.5 °F /  -3.1 °C 17.4 °F /  -8.1 °C 29.84in /  1010.4hPa NW 2mph /  3.2km/h 7mph /  11.3km/h 68% 0.00in /  0mm 0 W/m2
03:39 26.5 °F /  -3.1 °C 17.4 °F /  -8.1 °C 29.83in /  1010hPa NW 0.5mph /  0.8km/h 7mph /  11.3km/h 68% 0.00in /  0mm 0 W/m2
03:44 26.5 °F /  -3.1 °C 17.3 °F /  -8.2 °C 29.83in /  1010hPa NW 0.3mph /  0.5km/h 7mph /  11.3km/h 68% 0.00in /  0mm 0 W/m2
03:49 26.4 °F /  -3.1 °C 17.3 °F /  -8.2 °C 29.83in /  1010hPa NW 0.1mph /  0.2km/h 7mph /  11.3km/h 68% 0.00in /  0mm 0 W/m2
03:54 26.3 °F /  -3.2 °C 17.2 °F /  -8.2 °C 29.83in /  1010hPa NW 0.1mph /  0.2km/h 7mph /  11.3km/h 68% 0.00in /  0mm 0 W/m2
03:59 26.2 °F /  -3.2 °C 17.1 °F /  -8.3 °C 29.83in /  1010hPa Calm   7mph /  11.3km/h 68% 0.00in /  0mm 0 W/m2
04:04 26.1 °F /  -3.3 °C 17.3 °F /  -8.2 °C 29.83in /  1010hPa Calm   7mph /  11.3km/h 68.8% 0.00in /  0mm 0 W/m2
04:09 26 °F /  -3.3 °C 17.3 °F /  -8.2 °C 29.84in /  1010.4hPa Calm     69% 0.00in /  0mm 0 W/m2
04:14 25.9 °F /  -3.4 °C 17.2 °F /  -8.2 °C 29.84in /  1010.4hPa Calm     69% 0.00in /  0mm 0 W/m2
04:19 25.8 °F /  -3.4 °C 17 °F /  -8.3 °C 29.84in /  1010.4hPa Calm     69% 0.00in /  0mm 0 W/m2
04:24 25.7 °F /  -3.5 °C 16.9 °F /  -8.4 °C 29.84in /  1010.4hPa Calm     69% 0.00in /  0mm 0 W/m2
04:29 25.5 °F /  -3.6 °C 17.1 °F /  -8.3 °C 29.84in /  1010.4hPa Calm     69.9% 0.00in /  0mm 0 W/m2
04:34 25.4 °F /  -3.7 °C 17 °F /  -8.3 °C 29.83in /  1010hPa Calm     70% 0.00in /  0mm 0 W/m2
04:39 25.2 °F /  -3.8 °C 17.1 °F /  -8.3 °C 29.83in /  1010hPa Calm     70.8% 0.00in /  0mm 0 W/m2
04:41 25.2 °F /  -3.8 °C 17.1 °F /  -8.3 °C 29.83in /  1010hPa Calm     71% 0.00in /  0mm 0 W/m2
05:00 24.8 °F /  -4 °C 17.1 °F /  -8.3 °C 29.82in /  1009.7hPa Calm     72% 0.00in /  0mm 0 W/m2
05:30 24.6 °F /  -4.1 °C 16.9 °F /  -8.4 °C 29.82in /  1009.7hPa Calm   5mph /  8km/h 72% 0.00in /  0mm 0 W/m2
06:00 24.6 °F /  -4.1 °C 16.9 °F /  -8.4 °C 29.83in /  1010hPa NW 1mph /  1.6km/h 7mph /  11.3km/h 72% 0.00in /  0mm 0 W/m2
06:30 24.6 °F /  -4.1 °C 16.6 °F /  -8.6 °C 29.83in /  1010hPa NNW 2mph /  3.2km/h 10mph /  16.1km/h 71% 0.00in /  0mm 0 W/m2
07:30 24.2 °F /  -4.3 °C 16.2 °F /  -8.8 °C 29.85in /  1010.7hPa NW 3mph /  4.8km/h 9mph /  14.5km/h 71% 0.00in /  0mm 2 W/m2
08:04 25.3 °F /  -3.7 °C 17.3 °F /  -8.2 °C 29.85in /  1010.7hPa North 2mph /  3.2km/h 9mph /  14.5km/h 71.3% 0.00in /  0mm 72 W/m2
08:09 25.8 °F /  -3.4 °C 17.7 °F /  -7.9 °C 29.85in /  1010.7hPa North 1.5mph /  2.4km/h 10mph /  16.1km/h 71% 0.00in /  0mm 72 W/m2
08:14 26.4 °F /  -3.1 °C 17.8 °F /  -7.9 °C 29.86in /  1011.1hPa NNW 2.3mph /  3.7km/h 10mph /  16.1km/h 69.5% 0.00in /  0mm 91 W/m2
08:19 26.9 °F /  -2.8 °C 17.9 °F /  -7.8 °C 29.86in /  1011.1hPa NNW 3.9mph /  6.3km/h 11mph /  17.7km/h 68.4% 0.00in /  0mm 93 W/m2
08:24 27.3 °F /  -2.6 °C 17.9 °F /  -7.8 °C 29.86in /  1011.1hPa North 1.9mph /  3.1km/h 11mph /  17.7km/h 67.3% 0.00in /  0mm 105 W/m2
08:29 27.7 °F /  -2.4 °C 18.1 °F /  -7.7 °C 29.86in /  1011.1hPa NNW 4.3mph /  6.9km/h 16mph /  25.7km/h 66.6% 0.00in /  0mm 111 W/m2
08:34 28 °F /  -2.2 °C 17.8 °F /  -7.9 °C 29.86in /  1011.1hPa North 4.3mph /  6.9km/h 16mph /  25.7km/h 65.2% 0.00in /  0mm 81 W/m2
08:39 28.1 °F /  -2.2 °C 17.8 °F /  -7.9 °C 29.87in /  1011.4hPa North 3mph /  4.8km/h 13mph /  20.9km/h 65% 0.00in /  0mm 88 W/m2
08:44 28.2 °F /  -2.1 °C 17.7 °F /  -7.9 °C 29.87in /  1011.4hPa North 5mph /  8km/h 13mph /  20.9km/h 64.3% 0.00in /  0mm 123 W/m2
08:49 28.1 °F /  -2.2 °C 17.3 °F /  -8.2 °C 29.87in /  1011.4hPa North 5mph /  8km/h 15mph /  24.1km/h 63.4% 0.00in /  0mm 100 W/m2
08:54 28.2 °F /  -2.1 °C 17.5 °F /  -8.1 °C 29.87in /  1011.4hPa NNE 5mph /  8km/h 15mph /  24.1km/h 63.7% 0.00in /  0mm 148 W/m2
08:59 28.4 °F /  -2 °C 17.4 °F /  -8.1 °C 29.87in /  1011.4hPa NNW 5.8mph /  9.3km/h 15mph /  24.1km/h 63% 0.00in /  0mm 111 W/m2
09:04 28.4 °F /  -2 °C 17.5 °F /  -8.1 °C 29.87in /  1011.4hPa NNW 6.3mph /  10.1km/h 15mph /  24.1km/h 63% 0.00in /  0mm 113 W/m2
09:09 28.6 °F /  -1.9 °C 17.6 °F /  -8 °C 29.87in /  1011.4hPa North 4.6mph /  7.4km/h 18mph /  29km/h 63% 0.00in /  0mm 120 W/m2
09:14 28.8 °F /  -1.8 °C 17.8 °F /  -7.9 °C 29.87in /  1011.4hPa North 5.1mph /  8.2km/h 18mph /  29km/h 63% 0.00in /  0mm 116 W/m2
09:19 29 °F /  -1.7 °C 17.9 °F /  -7.8 °C 29.87in /  1011.4hPa North 4.7mph /  7.6km/h 18mph /  29km/h 62.6% 0.00in /  0mm 127 W/m2
09:24 29.2 °F /  -1.6 °C 17.9 °F /  -7.8 °C 29.86in /  1011.1hPa NNW 5.7mph /  9.2km/h 18mph /  29km/h 62% 0.00in /  0mm 165 W/m2
09:29 29.4 °F /  -1.4 °C 18 °F /  -7.8 °C 29.86in /  1011.1hPa NNW 6.5mph /  10.5km/h 18mph /  29km/h 62% 0.00in /  0mm 70 W/m2
09:34 29.4 °F /  -1.4 °C 17.9 °F /  -7.8 °C 29.86in /  1011.1hPa North 5.3mph /  8.5km/h 18mph /  29km/h 61.6% 0.00in /  0mm 165 W/m2
09:39 29.6 °F /  -1.3 °C 18.1 °F /  -7.7 °C 29.86in /  1011.1hPa North 4.9mph /  7.9km/h 15mph /  24.1km/h 61.8% 0.00in /  0mm 193 W/m2
09:44 29.9 °F /  -1.2 °C 18.2 °F /  -7.7 °C 29.86in /  1011.1hPa NNW 4.6mph /  7.4km/h 15mph /  24.1km/h 61.1% 0.00in /  0mm 135 W/m2
09:49 30 °F /  -1.1 °C 18.2 °F /  -7.7 °C 29.86in /  1011.1hPa NNW 6.9mph /  11.1km/h 16mph /  25.7km/h 61% 0.00in /  0mm 105 W/m2
09:54 29.9 °F /  -1.2 °C 18.1 °F /  -7.7 °C 29.87in /  1011.4hPa North 4mph /  6.4km/h 16mph /  25.7km/h 61% 0.00in /  0mm 142 W/m2
09:59 29.8 °F /  -1.2 °C 18 °F /  -7.8 °C 29.87in /  1011.4hPa NNW 5.3mph /  8.5km/h 16mph /  25.7km/h 61% 0.00in /  0mm 118 W/m2
10:04 29.9 °F /  -1.2 °C 18.2 °F /  -7.7 °C 29.87in /  1011.4hPa NNW 3mph /  4.8km/h 16mph /  25.7km/h 61.2% 0.00in /  0mm 70 W/m2
10:09 30 °F /  -1.1 °C 18.6 °F /  -7.4 °C 29.86in /  1011.1hPa NNW 3.8mph /  6.1km/h 11mph /  17.7km/h 62% 0.00in /  0mm 111 W/m2
10:14 30.3 °F /  -0.9 °C 18.7 °F /  -7.4 °C 29.86in /  1011.1hPa NNE 3.2mph /  5.1km/h 13mph /  20.9km/h 61.5% 0.00in /  0mm 171 W/m2
10:19 30.8 °F /  -0.7 °C 19 °F /  -7.2 °C 29.86in /  1011.1hPa NNE 2.7mph /  4.3km/h 13mph /  20.9km/h 61.2% 0.00in /  0mm 220 W/m2
10:24 31.4 °F /  -0.3 °C 19.3 °F /  -7.1 °C 29.86in /  1011.1hPa North 3.1mph /  5km/h 13mph /  20.9km/h 60.3% 0.00in /  0mm 345 W/m2
10:29 32.2 °F /  0.1 °C 19.8 °F /  -6.8 °C 29.85in /  1010.7hPa NNW 5.2mph /  8.4km/h 13mph /  20.9km/h 59.7% 0.00in /  0mm 381 W/m2
10:34 33.1 °F /  0.6 °C 20.2 °F /  -6.6 °C 29.85in /  1010.7hPa North 4.3mph /  6.9km/h 14mph /  22.5km/h 58.8% 0.00in /  0mm 373 W/m2
10:39 33.9 °F /  1.1 °C 20.6 °F /  -6.3 °C 29.85in /  1010.7hPa NNW 6.2mph /  10km/h 14mph /  22.5km/h 57.8% 0.00in /  0mm 436 W/m2
10:44 34.9 °F /  1.6 °C 21.4 °F /  -5.9 °C 29.85in /  1010.7hPa North 3.4mph /  5.5km/h 14mph /  22.5km/h 57.4% 0.00in /  0mm 429 W/m2
10:49 35.9 °F /  2.2 °C 21.5 °F /  -5.8 °C 29.85in /  1010.7hPa North 3.2mph /  5.1km/h 14mph /  22.5km/h 55.5% 0.00in /  0mm 464 W/m2
10:54 36.4 °F /  2.4 °C 21.4 °F /  -5.9 °C 29.85in /  1010.7hPa NNW 5mph /  8km/h 14mph /  22.5km/h 54.3% 0.00in /  0mm 471 W/m2
10:59 36.7 °F /  2.6 °C 21.6 °F /  -5.8 °C 29.84in /  1010.4hPa NNW 3.7mph /  6km/h 14mph /  22.5km/h 53.8% 0.00in /  0mm 455 W/m2
11:04 37 °F /  2.8 °C 21.7 °F /  -5.7 °C 29.84in /  1010.4hPa NNE 1.4mph /  2.3km/h 14mph /  22.5km/h 53.6% 0.00in /  0mm 417 W/m2
11:09 37 °F /  2.8 °C 21.5 °F /  -5.8 °C 29.84in /  1010.4hPa NNE 2.3mph /  3.7km/h 11mph /  17.7km/h 53% 0.00in /  0mm 332 W/m2
11:14 36.9 °F /  2.7 °C 21.2 °F /  -6 °C 29.83in /  1010hPa North 4mph /  6.4km/h 11mph /  17.7km/h 52.8% 0.00in /  0mm 313 W/m2
11:19 36.9 °F /  2.7 °C 21.7 °F /  -5.7 °C 29.83in /  1010hPa NNE 3.2mph /  5.1km/h 11mph /  17.7km/h 53.7% 0.00in /  0mm 374 W/m2
11:24 37 °F /  2.8 °C 21.3 °F /  -5.9 °C 29.83in /  1010hPa NNE 3.5mph /  5.6km/h 11mph /  17.7km/h 52.7% 0.00in /  0mm 327 W/m2
11:29 37 °F /  2.8 °C 21.5 °F /  -5.8 °C 29.82in /  1009.7hPa NNW 4.9mph /  7.9km/h 11mph /  17.7km/h 53.2% 0.00in /  0mm 188 W/m2
11:34 36.6 °F /  2.6 °C 20.9 °F /  -6.2 °C 29.82in /  1009.7hPa NNW 6.5mph /  10.5km/h 18mph /  29km/h 52.5% 0.00in /  0mm 137 W/m2
11:39 36.2 °F /  2.3 °C 20.8 °F /  -6.2 °C 29.82in /  1009.7hPa NNW 7mph /  11.3km/h 18mph /  29km/h 53.2% 0.00in /  0mm 176 W/m2
11:44 35.8 °F /  2.1 °C 20.7 °F /  -6.3 °C 29.82in /  1009.7hPa North 3.7mph /  6km/h 18mph /  29km/h 53.7% 0.00in /  0mm 192 W/m2
11:49 35.8 °F /  2.1 °C 21.2 °F /  -6 °C 29.81in /  1009.4hPa North 1.8mph /  2.9km/h 18mph /  29km/h 54.9% 0.00in /  0mm 246 W/m2
11:54 36.1 °F /  2.3 °C 21.6 °F /  -5.8 °C 29.81in /  1009.4hPa North 3.9mph /  6.3km/h 18mph /  29km/h 55.1% 0.00in /  0mm 163 W/m2
11:59 36.4 °F /  2.4 °C 21.5 °F /  -5.8 °C 29.82in /  1009.7hPa NNW 4.8mph /  7.7km/h 18mph /  29km/h 54.4% 0.00in /  0mm 163 W/m2
12:04 36.3 °F /  2.4 °C 21.7 °F /  -5.7 °C 29.81in /  1009.4hPa NW 4mph /  6.4km/h 4mph /  6.4km/h 55% 0.00in /  0mm 134 W/m2
12:09 36.3 °F /  2.4 °C 21.7 °F /  -5.7 °C 29.82in /  1009.7hPa NNW 3.8mph /  6.1km/h 13mph /  20.9km/h 55% 0.00in /  0mm 422 W/m2
12:14 36.3 °F /  2.4 °C 21.5 °F /  -5.8 °C 29.81in /  1009.4hPa North 2.7mph /  4.3km/h 13mph /  20.9km/h 54.5% 0.00in /  0mm 366 W/m2
12:19 36.3 °F /  2.4 °C 21.7 °F /  -5.7 °C 29.81in /  1009.4hPa NNW 2.5mph /  4km/h 13mph /  20.9km/h 55.1% 0.00in /  0mm 461 W/m2
12:24 36.5 °F /  2.5 °C 21.9 °F /  -5.6 °C 29.81in /  1009.4hPa NNE 2.3mph /  3.7km/h 13mph /  20.9km/h 55% 0.00in /  0mm 494 W/m2
12:29 36.8 °F /  2.7 °C 21.9 °F /  -5.6 °C 29.80in /  1009hPa NE 1.5mph /  2.4km/h 13mph /  20.9km/h 54.3% 0.00in /  0mm 494 W/m2
12:34 36.9 °F /  2.7 °C 21.8 °F /  -5.7 °C 29.80in /  1009hPa NNE 2.5mph /  4km/h 13mph /  20.9km/h 54% 0.00in /  0mm 346 W/m2
12:39 36.8 °F /  2.7 °C 22.1 °F /  -5.5 °C 29.80in /  1009hPa NNE 1.9mph /  3.1km/h 9mph /  14.5km/h 54.8% 0.00in /  0mm 327 W/m2
12:44 36.9 °F /  2.7 °C 22.3 °F /  -5.4 °C 29.80in /  1009hPa NNE 1.7mph /  2.7km/h 9mph /  14.5km/h 55.2% 0.00in /  0mm 434 W/m2
12:49 37.1 °F /  2.8 °C 22.4 °F /  -5.3 °C 29.80in /  1009hPa North 3.6mph /  5.8km/h 12mph /  19.3km/h 55% 0.00in /  0mm 424 W/m2
12:54 37.5 °F /  3.1 °C 22.8 °F /  -5.1 °C 29.80in /  1009hPa NNW 4.2mph /  6.8km/h 12mph /  19.3km/h 54.9% 0.00in /  0mm 322 W/m2
12:59 37.8 °F /  3.2 °C 22.6 °F /  -5.2 °C 29.80in /  1009hPa NNW 2.8mph /  4.5km/h 12mph /  19.3km/h 53.8% 0.00in /  0mm 232 W/m2
13:04 37.8 °F /  3.2 °C 22.7 °F /  -5.2 °C 29.80in /  1009hPa North 2.2mph /  3.5km/h 12mph /  19.3km/h 54% 0.00in /  0mm 232 W/m2
13:09 37.9 °F /  3.3 °C 22.9 °F /  -5.1 °C 29.80in /  1009hPa NNW 1.8mph /  2.9km/h 7mph /  11.3km/h 54.3% 0.00in /  0mm 227 W/m2
13:14 37.9 °F /  3.3 °C 22.8 °F /  -5.1 °C 29.80in /  1009hPa NNW 2.4mph /  3.9km/h 11mph /  17.7km/h 54% 0.00in /  0mm 218 W/m2
13:19 37.9 °F /  3.3 °C 22.7 °F /  -5.2 °C 29.80in /  1009hPa NNW 3mph /  4.8km/h 11mph /  17.7km/h 54% 0.00in /  0mm 200 W/m2
13:24 37.7 °F /  3.2 °C 22.5 °F /  -5.3 °C 29.80in /  1009hPa NW 3.9mph /  6.3km/h 11mph /  17.7km/h 54% 0.00in /  0mm 163 W/m2
13:29 37.4 °F /  3 °C 23.1 °F /  -4.9 °C 29.80in /  1009hPa NW 2.5mph /  4km/h 12mph /  19.3km/h 56% 0.00in /  0mm 167 W/m2
13:34 37.3 °F /  2.9 °C 22.9 °F /  -5.1 °C 29.80in /  1009hPa NNW 2.4mph /  3.9km/h 12mph /  19.3km/h 55.6% 0.00in /  0mm 169 W/m2
13:37 37.3 °F /  2.9 °C 22.8 °F /  -5.1 °C 29.80in /  1009hPa NW 2.9mph /  4.7km/h 11mph /  17.7km/h 55.3% 0.00in /  0mm 153 W/m2
14:00 36.9 °F /  2.7 °C 23.1 °F /  -4.9 °C 29.80in /  1009hPa NNW 2mph /  3.2km/h 13mph /  20.9km/h 57% 0.00in /  0mm 133 W/m2
14:30 37.1 °F /  2.8 °C 23.3 °F /  -4.8 °C 29.80in /  1009hPa NNW 1mph /  1.6km/h 10mph /  16.1km/h 57% 0.00in /  0mm 123 W/m2
15:00 36.7 °F /  2.6 °C 22.5 °F /  -5.3 °C 29.81in /  1009.4hPa WNW 2mph /  3.2km/h 9mph /  14.5km/h 56% 0.00in /  0mm 86 W/m2
15:30 35.9 °F /  2.2 °C 21.8 °F /  -5.7 °C 29.81in /  1009.4hPa WNW 3mph /  4.8km/h 12mph /  19.3km/h 56% 0.00in /  0mm 45 W/m2
16:04 35.2 °F /  1.8 °C 21.5 °F /  -5.8 °C 29.82in /  1009.7hPa WNW 4.2mph /  6.8km/h 12mph /  19.3km/h 56.9% 0.00in /  0mm 45 W/m2
16:09 35.1 °F /  1.7 °C 21.4 °F /  -5.9 °C 29.82in /  1009.7hPa WNW 3.5mph /  5.6km/h 11mph /  17.7km/h 57% 0.00in /  0mm 9 W/m2
16:14 35.1 °F /  1.7 °C 21.6 °F /  -5.8 °C 29.82in /  1009.7hPa NW 3.7mph /  6km/h 15mph /  24.1km/h 57.6% 0.00in /  0mm 7 W/m2
16:19 35 °F /  1.7 °C 21.7 °F /  -5.7 °C 29.82in /  1009.7hPa NW 2.2mph /  3.5km/h 15mph /  24.1km/h 58% 0.00in /  0mm 5 W/m2
16:24 35 °F /  1.7 °C 21.8 °F /  -5.7 °C 29.83in /  1010hPa NW 1.8mph /  2.9km/h 15mph /  24.1km/h 58% 0.00in /  0mm 0 W/m2
16:29 35 °F /  1.7 °C 21.8 °F /  -5.7 °C 29.83in /  1010hPa NW 2mph /  3.2km/h 15mph /  24.1km/h 58% 0.00in /  0mm 0 W/m2
16:34 35.1 °F /  1.7 °C 21.8 °F /  -5.7 °C 29.83in /  1010hPa NW 2mph /  3.2km/h 15mph /  24.1km/h 58% 0.00in /  0mm 0 W/m2
16:39 35.1 °F /  1.7 °C 21.8 °F /  -5.7 °C 29.83in /  1010hPa NW 1.8mph /  2.9km/h 10mph /  16.1km/h 58% 0.00in /  0mm 0 W/m2
16:44 35.1 °F /  1.7 °C 21.8 °F /  -5.7 °C 29.83in /  1010hPa NW 1.9mph /  3.1km/h 10mph /  16.1km/h 58% 0.00in /  0mm 0 W/m2
16:49 35.1 °F /  1.7 °C 21.8 °F /  -5.7 °C 29.83in /  1010hPa NW 2.4mph /  3.9km/h 11mph /  17.7km/h 58% 0.00in /  0mm 0 W/m2
16:54 35.1 °F /  1.7 °C 21.8 °F /  -5.7 °C 29.84in /  1010.4hPa NW 1.9mph /  3.1km/h 11mph /  17.7km/h 58% 0.00in /  0mm 0 W/m2
16:59 35 °F /  1.7 °C 21.7 °F /  -5.7 °C 29.84in /  1010.4hPa NW 1.8mph /  2.9km/h 11mph /  17.7km/h 58% 0.00in /  0mm 0 W/m2
17:04 34.9 °F /  1.6 °C 21.7 °F /  -5.7 °C 29.83in /  1010hPa NW 2.8mph /  4.5km/h 12mph /  19.3km/h 58% 0.00in /  0mm 0 W/m2
17:09 34.9 °F /  1.6 °C 21.6 °F /  -5.8 °C 29.84in /  1010.4hPa NW 4.2mph /  6.8km/h 12mph /  19.3km/h 58% 0.00in /  0mm 0 W/m2
17:14 34.8 °F /  1.6 °C 21.6 °F /  -5.8 °C 29.84in /  1010.4hPa NNW 2.3mph /  3.7km/h 12mph /  19.3km/h 58% 0.00in /  0mm 0 W/m2
17:19 34.8 °F /  1.6 °C 21.5 °F /  -5.8 °C 29.84in /  1010.4hPa NW 2.1mph /  3.4km/h 12mph /  19.3km/h 58% 0.00in /  0mm 0 W/m2
17:20 34.8 °F /  1.6 °C 21.5 °F /  -5.8 °C 29.84in /  1010.4hPa NW 5.1mph /  8.2km/h 12mph /  19.3km/h 58% 0.00in /  0mm 0 W/m2
17:30 34.8 °F /  1.6 °C 21.5 °F /  -5.8 °C 29.85in /  1010.7hPa NW 2mph /  3.2km/h 12mph /  19.3km/h 58% 0.00in /  0mm 0 W/m2
18:00 34.6 °F /  1.4 °C 21 °F /  -6.1 °C 29.85in /  1010.7hPa NNW 1mph /  1.6km/h 9mph /  14.5km/h 57% 0.00in /  0mm 0 W/m2
18:39 34.6 °F /  1.4 °C 19.3 °F /  -7.1 °C 29.87in /  1011.4hPa NW 2.9mph /  4.7km/h 10mph /  16.1km/h 53.1% 0.00in /  0mm 0 W/m2
18:44 34.7 °F /  1.5 °C 19 °F /  -7.2 °C 29.87in /  1011.4hPa NNW 2.4mph /  3.9km/h 10mph /  16.1km/h 52.3% 0.00in /  0mm 0 W/m2
18:49 34.7 °F /  1.5 °C 18.9 °F /  -7.3 °C 29.87in /  1011.4hPa NNW 2.3mph /  3.7km/h 10mph /  16.1km/h 52% 0.00in /  0mm 0 W/m2
18:54 34.7 °F /  1.5 °C 18.9 °F /  -7.3 °C 29.88in /  1011.7hPa NNW 2.1mph /  3.4km/h 10mph /  16.1km/h 52% 0.00in /  0mm 0 W/m2
18:59 34.6 °F /  1.4 °C 18.8 °F /  -7.3 °C 29.88in /  1011.7hPa NW 3mph /  4.8km/h 10mph /  16.1km/h 52% 0.00in /  0mm 0 W/m2
19:04 34.5 °F /  1.4 °C 18.7 °F /  -7.4 °C 29.88in /  1011.7hPa NNW 1.4mph /  2.3km/h 10mph /  16.1km/h 52% 0.00in /  0mm 0 W/m2
19:09 34.5 °F /  1.4 °C 18.9 °F /  -7.3 °C 29.89in /  1012.1hPa NNW 0.5mph /  0.8km/h 6mph /  9.7km/h 52.5% 0.00in /  0mm 0 W/m2
19:14 34.4 °F /  1.3 °C 18.9 °F /  -7.3 °C 29.89in /  1012.1hPa NNW 1.9mph /  3.1km/h 7mph /  11.3km/h 52.7% 0.00in /  0mm 0 W/m2
19:19 34.4 °F /  1.3 °C 18.8 °F /  -7.3 °C 29.89in /  1012.1hPa North 1mph /  1.6km/h 7mph /  11.3km/h 52.5% 0.00in /  0mm 0 W/m2
19:24 34.4 °F /  1.3 °C 19 °F /  -7.2 °C 29.89in /  1012.1hPa North 1.7mph /  2.7km/h 11mph /  17.7km/h 52.8% 0.00in /  0mm 0 W/m2
19:29 34.4 °F /  1.3 °C 19 °F /  -7.2 °C 29.89in /  1012.1hPa NNW 1.3mph /  2.1km/h 11mph /  17.7km/h 52.8% 0.00in /  0mm 0 W/m2
19:34 34.5 °F /  1.4 °C 19.2 °F /  -7.1 °C 29.89in /  1012.1hPa NNW 1.2mph /  1.9km/h 11mph /  17.7km/h 53% 0.00in /  0mm 0 W/m2
19:39 34.5 °F /  1.4 °C 18.8 °F /  -7.3 °C 29.89in /  1012.1hPa NNW 2.2mph /  3.5km/h 9mph /  14.5km/h 52.1% 0.00in /  0mm 0 W/m2
19:44 34.6 °F /  1.4 °C 18.8 °F /  -7.3 °C 29.89in /  1012.1hPa NNW 2.4mph /  3.9km/h 9mph /  14.5km/h 52% 0.00in /  0mm 0 W/m2
19:49 34.6 °F /  1.4 °C 18.8 °F /  -7.3 °C 29.89in /  1012.1hPa NNW 2.1mph /  3.4km/h 9mph /  14.5km/h 52% 0.00in /  0mm 0 W/m2
19:54 34.6 °F /  1.4 °C 18.8 °F /  -7.3 °C 29.89in /  1012.1hPa NNW 2.1mph /  3.4km/h 9mph /  14.5km/h 52% 0.00in /  0mm 0 W/m2
19:58 34.5 °F /  1.4 °C 18.7 °F /  -7.4 °C 29.89in /  1012.1hPa NNW 2.2mph /  3.5km/h 11mph /  17.7km/h 52% 0.00in /  0mm 0 W/m2
20:04 34.4 °F /  1.3 °C 18.6 °F /  -7.4 °C 29.89in /  1012.1hPa NNW 4.8mph /  7.7km/h 12mph /  19.3km/h 52% 0.00in /  0mm 0 W/m2
20:09 34.3 °F /  1.3 °C 18.3 °F /  -7.6 °C 29.89in /  1012.1hPa NNW 2.4mph /  3.9km/h 12mph /  19.3km/h 51.4% 0.00in /  0mm 0 W/m2
20:14 34.2 °F /  1.2 °C 18.4 °F /  -7.6 °C 29.90in /  1012.4hPa NNW 2.4mph /  3.9km/h 12mph /  19.3km/h 52% 0.00in /  0mm 0 W/m2
20:19 34.1 °F /  1.2 °C 18 °F /  -7.8 °C 29.90in /  1012.4hPa NW 2.3mph /  3.7km/h 12mph /  19.3km/h 51.3% 0.00in /  0mm 0 W/m2
20:24 34 °F /  1.1 °C 18.1 °F /  -7.7 °C 29.90in /  1012.4hPa NNW 0.9mph /  1.4km/h 12mph /  19.3km/h 51.7% 0.00in /  0mm 0 W/m2
20:29 33.9 °F /  1.1 °C 18.1 °F /  -7.7 °C 29.90in /  1012.4hPa NW 2mph /  3.2km/h 12mph /  19.3km/h 52% 0.00in /  0mm 0 W/m2
20:34 33.7 °F /  0.9 °C 18 °F /  -7.8 °C 29.90in /  1012.4hPa NW 1.4mph /  2.3km/h 12mph /  19.3km/h 52% 0.00in /  0mm 0 W/m2
20:39 33.6 °F /  0.9 °C 17.9 °F /  -7.8 °C 29.90in /  1012.4hPa NNW 2.4mph /  3.9km/h 9mph /  14.5km/h 52% 0.00in /  0mm 0 W/m2
20:44 33.5 °F /  0.8 °C 17.8 °F /  -7.9 °C 29.90in /  1012.4hPa NNW 1.3mph /  2.1km/h 9mph /  14.5km/h 52% 0.00in /  0mm 0 W/m2
20:49 33.4 °F /  0.8 °C 17.7 °F /  -7.9 °C 29.90in /  1012.4hPa North 1.6mph /  2.6km/h 9mph /  14.5km/h 52% 0.00in /  0mm 0 W/m2
20:54 33.3 °F /  0.7 °C 17.5 °F /  -8.1 °C 29.90in /  1012.4hPa NNW 2.3mph /  3.7km/h 9mph /  14.5km/h 51.8% 0.00in /  0mm 0 W/m2
20:59 33.2 °F /  0.7 °C 17.5 °F /  -8.1 °C 29.91in /  1012.8hPa NNW 2.9mph /  4.7km/h 10mph /  16.1km/h 52% 0.00in /  0mm 0 W/m2
21:04 33.1 °F /  0.6 °C 17.4 °F /  -8.1 °C 29.91in /  1012.8hPa North 1.5mph /  2.4km/h 10mph /  16.1km/h 52% 0.00in /  0mm 0 W/m2
21:09 33 °F /  0.6 °C 17.3 °F /  -8.2 °C 29.91in /  1012.8hPa NNW 1.5mph /  2.4km/h 9mph /  14.5km/h 52% 0.00in /  0mm 0 W/m2
21:14 32.9 °F /  0.5 °C 17.3 °F /  -8.2 °C 29.91in /  1012.8hPa NW 2.7mph /  4.3km/h 10mph /  16.1km/h 52% 0.00in /  0mm 0 W/m2
21:19 32.9 °F /  0.5 °C 17.2 °F /  -8.2 °C 29.91in /  1012.8hPa NNW 1.2mph /  1.9km/h 10mph /  16.1km/h 52% 0.00in /  0mm 0 W/m2
21:24 32.8 °F /  0.4 °C 17.6 °F /  -8 °C 29.91in /  1012.8hPa NNW 2.2mph /  3.5km/h 11mph /  17.7km/h 52.9% 0.00in /  0mm 0 W/m2
21:29 32.8 °F /  0.4 °C 17.7 °F /  -7.9 °C 29.91in /  1012.8hPa NNW 3.4mph /  5.5km/h 11mph /  17.7km/h 53.4% 0.00in /  0mm 0 W/m2
21:34 32.7 °F /  0.4 °C 17.9 °F /  -7.8 °C 29.91in /  1012.8hPa NNW 3.5mph /  5.6km/h 11mph /  17.7km/h 54% 0.00in /  0mm 0 W/m2
21:39 32.7 °F /  0.4 °C 18.3 °F /  -7.6 °C 29.92in /  1013.1hPa North 1.9mph /  3.1km/h 11mph /  17.7km/h 55% 0.00in /  0mm 0 W/m2
21:44 32.6 °F /  0.3 °C 18.3 °F /  -7.6 °C 29.92in /  1013.1hPa NNW 4.2mph /  6.8km/h 12mph /  19.3km/h 55% 0.00in /  0mm 0 W/m2
21:49 32.6 °F /  0.3 °C 18.6 °F /  -7.4 °C 29.92in /  1013.1hPa NNW 3mph /  4.8km/h 12mph /  19.3km/h 56% 0.00in /  0mm 0 W/m2
21:54 32.6 °F /  0.3 °C 18.7 °F /  -7.4 °C 29.92in /  1013.1hPa NNW 2.4mph /  3.9km/h 12mph /  19.3km/h 56% 0.00in /  0mm 0 W/m2
21:59 32.6 °F /  0.3 °C 18.7 °F /  -7.4 °C 29.92in /  1013.1hPa NNW 1.9mph /  3.1km/h 12mph /  19.3km/h 56.1% 0.00in /  0mm 0 W/m2
22:04 32.5 °F /  0.3 °C 19 °F /  -7.2 °C 29.92in /  1013.1hPa NNW 2.3mph /  3.7km/h 12mph /  19.3km/h 57% 0.00in /  0mm 0 W/m2
22:09 32.5 °F /  0.3 °C 19 °F /  -7.2 °C 29.92in /  1013.1hPa NW 2.1mph /  3.4km/h 10mph /  16.1km/h 57% 0.00in /  0mm 0 W/m2
22:14 32.4 °F /  0.2 °C 18.9 °F /  -7.3 °C 29.92in /  1013.1hPa NNW 3.1mph /  5km/h 11mph /  17.7km/h 57.2% 0.00in /  0mm 0 W/m2
22:19 32.4 °F /  0.2 °C 18.9 °F /  -7.3 °C 29.92in /  1013.1hPa North 2.5mph /  4km/h 11mph /  17.7km/h 57.1% 0.00in /  0mm 0 W/m2
22:24 32.4 °F /  0.2 °C 19.3 °F /  -7.1 °C 29.93in /  1013.4hPa NNW 2.6mph /  4.2km/h 11mph /  17.7km/h 58% 0.00in /  0mm 0 W/m2
22:29 32.4 °F /  0.2 °C 19.3 °F /  -7.1 °C 29.93in /  1013.4hPa North 0.5mph /  0.8km/h 11mph /  17.7km/h 58% 0.00in /  0mm 0 W/m2
22:34 32.3 °F /  0.2 °C 19.2 °F /  -7.1 °C 29.93in /  1013.4hPa North 1mph /  1.6km/h 11mph /  17.7km/h 58% 0.00in /  0mm 0 W/m2
22:39 32.3 °F /  0.2 °C 19.2 °F /  -7.1 °C 29.93in /  1013.4hPa NNW 1.8mph /  2.9km/h 7mph /  11.3km/h 58% 0.00in /  0mm 0 W/m2
22:44 32.2 °F /  0.1 °C 19.1 °F /  -7.2 °C 29.93in /  1013.4hPa NNW 1.3mph /  2.1km/h 7mph /  11.3km/h 58% 0.00in /  0mm 0 W/m2
22:49 32.1 °F /  0.1 °C 19.2 °F /  -7.1 °C 29.94in /  1013.8hPa NNW 1.2mph /  1.9km/h 7mph /  11.3km/h 58.5% 0.00in /  0mm 0 W/m2
22:54 32.1 °F /  0.1 °C 19.2 °F /  -7.1 °C 29.94in /  1013.8hPa NNW 1.3mph /  2.1km/h 7mph /  11.3km/h 58.7% 0.00in /  0mm 0 W/m2
22:59 32 °F /  0 °C 19.3 °F /  -7.1 °C 29.94in /  1013.8hPa NNW 1.2mph /  1.9km/h 7mph /  11.3km/h 59% 0.00in /  0mm 0 W/m2
23:04 31.9 °F /  -0.1 °C 19.2 °F /  -7.1 °C 29.94in /  1013.8hPa North 2.7mph /  4.3km/h 4mph /  6.4km/h 59% 0.00in /  0mm 0 W/m2
23:09 31.9 °F /  -0.1 °C 19.2 °F /  -7.1 °C 29.94in /  1013.8hPa NNW 1.4mph /  2.3km/h 9mph /  14.5km/h 59% 0.00in /  0mm 0 W/m2
23:14 31.8 °F /  -0.1 °C 19.1 °F /  -7.2 °C 29.94in /  1013.8hPa North 0.6mph /  1km/h 9mph /  14.5km/h 59% 0.00in /  0mm 0 W/m2
23:19 31.8 °F /  -0.1 °C 19.1 °F /  -7.2 °C 29.94in /  1013.8hPa NNW 1.1mph /  1.8km/h 9mph /  14.5km/h 59% 0.00in /  0mm 0 W/m2
23:24 31.8 °F /  -0.1 °C 19.1 °F /  -7.2 °C 29.94in /  1013.8hPa NNW 0.3mph /  0.5km/h 9mph /  14.5km/h 59% 0.00in /  0mm 0 W/m2
23:29 31.7 °F /  -0.2 °C 19 °F /  -7.2 °C 29.94in /  1013.8hPa Calm   9mph /  14.5km/h 59% 0.00in /  0mm 0 W/m2
23:34 31.7 °F /  -0.2 °C 19 °F /  -7.2 °C 29.94in /  1013.8hPa NNW 0.4mph /  0.6km/h 9mph /  14.5km/h 59% 0.00in /  0mm 0 W/m2
23:39 31.6 °F /  -0.2 °C 19 °F /  -7.2 °C 29.95in /  1014.1hPa Calm   3mph /  4.8km/h 59% 0.00in /  0mm 0 W/m2
23:44 31.6 °F /  -0.2 °C 19 °F /  -7.2 °C 29.95in /  1014.1hPa Calm   3mph /  4.8km/h 59.2% 0.00in /  0mm 0 W/m2
23:49 31.5 °F /  -0.3 °C 19.2 °F /  -7.1 °C 29.95in /  1014.1hPa NNW 0.1mph /  0.2km/h 3mph /  4.8km/h 59.7% 0.00in /  0mm 0 W/m2
23:54 31.5 °F /  -0.3 °C 19.2 °F /  -7.1 °C 29.95in /  1014.1hPa NNW 0.4mph /  0.6km/h 3mph /  4.8km/h 60% 0.00in /  0mm 0 W/m2
23:59 31.5 °F /  -0.3 °C 19.2 °F /  -7.1 °C 29.95in /  1014.1hPa NNW 0.4mph /  0.6km/h 5mph /  8km/h 60% 0.00in /  0mm 0 W/m2
Hartford County Weather
Compliments of Weather Underground - 2 mb